Noblesville, Indiana
Current Conditions -  °F | °C
As of 2:35 PM on Tuesday 21 Oct 2014 (Local Time) from KTYQ Reporting Station
Broken Clouds Broken Clouds  
Wind Chill: 55°   Ceiling: 5000
Heat Index: 55°   Visibility: 10mi
Dew Point: 40°   Wind: 9mph
Humidity: 56%   Direction: 350°N
Pressure: 30.09"   Gusts: NA
Location:  40.05°N, 86.01°W
Report Text: KTYQ 211835Z AUTO 35008KT 10SM SCT037 BKN050 13/04 A3009 RMK AO2 T01300043
Loading
Personal Weather Stations






























Interactive Weather Map New forecast layout! Learn more

10-Day Weather Forecast

Advertisements
Track Severe Weather on mobile